createdAt,value
2019-03-02T00:00:45.828Z,0.00
2019-03-02T00:01:48.467Z,0.00
2019-03-02T00:02:45.735Z,0.00
2019-03-02T00:03:45.697Z,0.00
2019-03-02T00:04:47.313Z,0.00
2019-03-02T00:05:45.592Z,0.00
2019-03-02T00:06:45.538Z,0.00
2019-03-02T00:07:47.715Z,0.00
2019-03-02T00:08:45.467Z,0.00
2019-03-02T00:09:45.424Z,0.00
2019-03-02T00:10:45.831Z,0.00
2019-03-02T00:11:45.319Z,0.00
2019-03-02T00:12:45.275Z,0.00
2019-03-02T00:13:45.214Z,0.00
2019-03-02T00:14:45.176Z,0.00
2019-03-02T00:15:45.143Z,0.00
2019-03-02T00:16:45.101Z,0.00
2019-03-02T00:17:45.050Z,0.00
2019-03-02T00:18:44.994Z,0.00
2019-03-02T00:19:44.961Z,0.00
2019-03-02T00:20:44.890Z,0.00
2019-03-02T00:21:44.862Z,0.00
2019-03-02T00:22:45.019Z,0.00
2019-03-02T00:23:44.766Z,0.00
2019-03-02T00:24:44.730Z,0.00
2019-03-02T00:25:44.668Z,0.00
2019-03-02T00:26:45.966Z,0.00
2019-03-02T00:27:44.577Z,0.00
2019-03-02T00:28:44.533Z,0.00
2019-03-02T00:29:45.963Z,0.00
2019-03-02T00:30:44.453Z,0.00
2019-03-02T00:31:44.394Z,0.00
2019-03-02T00:32:45.168Z,0.00
2019-03-02T00:33:44.302Z,0.00
2019-03-02T00:34:44.258Z,0.00
2019-03-02T00:35:44.824Z,0.00
2019-03-02T00:36:44.175Z,0.00
2019-03-02T00:37:44.114Z,0.00
2019-03-02T00:38:44.327Z,0.00
2019-03-02T00:39:44.034Z,0.00
2019-03-02T00:40:43.980Z,0.00
2019-03-02T00:41:43.928Z,0.00
2019-03-02T00:42:43.874Z,0.00
2019-03-02T00:43:43.837Z,0.00
2019-03-02T00:44:43.794Z,0.00
2019-03-02T00:45:45.985Z,0.00
2019-03-02T00:46:43.714Z,0.00
2019-03-02T00:47:43.656Z,0.00
2019-03-02T00:48:46.869Z,0.00
2019-03-02T00:49:43.563Z,0.00
2019-03-02T00:50:43.518Z,0.00
2019-03-02T00:51:46.334Z,0.00
2019-03-02T00:52:43.437Z,0.00
2019-03-02T00:53:43.369Z,0.00
2019-03-02T00:54:46.167Z,0.00
2019-03-02T00:55:43.284Z,0.00
2019-03-02T00:56:43.715Z,0.00
2019-03-02T00:57:43.194Z,0.00
2019-03-02T00:58:43.153Z,0.00
2019-03-02T00:59:43.102Z,0.00
2019-03-02T01:00:43.053Z,0.00
2019-03-02T01:01:42.998Z,0.00
2019-03-02T01:02:42.965Z,0.00
2019-03-02T01:03:42.918Z,0.00
2019-03-02T01:04:42.860Z,0.00
2019-03-02T01:05:42.845Z,0.00
2019-03-02T01:06:44.961Z,0.00
2019-03-02T01:07:42.743Z,0.00
2019-03-02T01:08:42.697Z,0.00
2019-03-02T01:09:43.655Z,0.00
2019-03-02T01:10:42.602Z,0.00
2019-03-02T01:11:42.551Z,0.00
2019-03-02T01:12:43.978Z,0.00
2019-03-02T01:13:42.460Z,0.00
2019-03-02T01:14:42.399Z,0.00
2019-03-02T01:15:44.048Z,0.00
2019-03-02T01:16:42.325Z,0.00
2019-03-02T01:17:42.270Z,0.00
2019-03-02T01:18:42.507Z,0.00
2019-03-02T01:19:42.170Z,0.00
2019-03-02T01:20:42.134Z,0.00
2019-03-02T01:21:42.591Z,0.00
2019-03-02T01:22:42.057Z,0.00
2019-03-02T01:23:41.998Z,0.00
2019-03-02T01:24:41.938Z,0.00
2019-03-02T01:25:41.917Z,0.00
2019-03-02T01:26:41.847Z,0.00
2019-03-02T01:27:41.825Z,0.00
2019-03-02T01:28:44.505Z,0.00
2019-03-02T01:29:41.719Z,0.00
2019-03-02T01:30:41.685Z,0.00
2019-03-02T01:31:41.816Z,0.00
2019-03-02T01:32:41.582Z,0.00
2019-03-02T01:33:41.537Z,0.00
2019-03-02T01:34:42.350Z,0.00
2019-03-02T01:35:41.443Z,0.00
2019-03-02T01:36:41.402Z,0.00
2019-03-02T01:37:43.997Z,0.00
2019-03-02T01:38:41.306Z,0.00
2019-03-02T01:39:41.255Z,0.00
2019-03-02T01:40:41.658Z,0.00
2019-03-02T01:41:41.167Z,0.00
2019-03-02T01:42:41.111Z,0.00
2019-03-02T01:43:41.449Z,0.00
2019-03-02T01:44:41.016Z,0.00
2019-03-02T01:45:40.991Z,0.00
2019-03-02T01:46:41.600Z,0.00
2019-03-02T01:47:40.889Z,0.00
2019-03-02T01:48:40.834Z,0.00
2019-03-02T01:49:40.797Z,0.00
2019-03-02T01:50:43.779Z,0.00
2019-03-02T01:51:40.714Z,0.00
2019-03-02T01:52:40.660Z,0.00
2019-03-02T01:53:41.828Z,0.00
2019-03-02T01:54:40.555Z,0.00
2019-03-02T01:55:40.521Z,0.00
2019-03-02T01:56:41.425Z,0.00
2019-03-02T01:57:40.429Z,0.00
2019-03-02T01:58:40.371Z,0.00
2019-03-02T01:59:40.332Z,0.00
2019-03-02T02:00:40.291Z,0.00
2019-03-02T02:01:40.244Z,0.00
2019-03-02T02:02:40.197Z,0.00
2019-03-02T02:03:40.170Z,0.00
2019-03-02T02:04:40.104Z,0.00
2019-03-02T02:05:40.065Z,0.00
2019-03-02T02:06:42.720Z,0.00
2019-03-02T02:07:39.975Z,0.00
2019-03-02T02:08:39.916Z,0.00
2019-03-02T02:09:40.590Z,0.00
2019-03-02T02:10:43.043Z,0.00
2019-03-02T02:11:39.780Z,0.00
2019-03-02T02:12:39.731Z,0.00
2019-03-02T02:13:42.904Z,0.00
2019-03-02T02:14:39.643Z,0.00
2019-03-02T02:15:39.609Z,0.00
2019-03-02T02:16:41.879Z,0.00
2019-03-02T02:17:39.491Z,0.00
2019-03-02T02:18:39.469Z,0.00
2019-03-02T02:19:39.659Z,0.00
2019-03-02T02:20:39.377Z,0.00
2019-03-02T02:21:39.305Z,0.00
2019-03-02T02:22:39.272Z,0.00
2019-03-02T02:23:39.236Z,0.00
2019-03-02T02:24:39.188Z,0.00
2019-03-02T02:25:39.133Z,0.00
2019-03-02T02:26:39.086Z,0.00
2019-03-02T02:27:39.039Z,0.00
2019-03-02T02:28:38.993Z,0.00
2019-03-02T02:29:40.689Z,0.00
2019-03-02T02:30:38.906Z,0.00
2019-03-02T02:31:44.570Z,0.00
2019-03-02T02:32:38.797Z,0.00
2019-03-02T02:33:43.184Z,0.00
2019-03-02T02:34:38.704Z,0.00
2019-03-02T02:35:40.242Z,0.00
2019-03-02T02:36:38.635Z,0.00
2019-03-02T02:37:38.580Z,0.00
2019-03-02T02:38:38.588Z,0.00
2019-03-02T02:39:38.481Z,0.00
2019-03-02T02:40:38.452Z,0.00
2019-03-02T02:41:38.383Z,0.00
2019-03-02T02:42:39.054Z,0.00
2019-03-02T02:43:38.288Z,0.00
2019-03-02T02:44:39.239Z,0.00
2019-03-02T02:45:38.217Z,0.00
2019-03-02T02:46:38.149Z,0.00
2019-03-02T02:47:38.127Z,0.00
2019-03-02T02:48:38.081Z,0.00
2019-03-02T02:49:38.010Z,0.00
2019-03-02T02:50:37.974Z,0.00
2019-03-02T02:51:37.960Z,0.00
2019-03-02T02:52:37.892Z,0.00
2019-03-02T02:53:40.185Z,0.00
2019-03-02T02:54:37.806Z,0.00
2019-03-02T02:55:40.815Z,0.00
2019-03-02T02:56:37.712Z,0.00
2019-03-02T02:57:38.280Z,0.00
2019-03-02T02:58:37.605Z,0.00
2019-03-02T02:59:38.527Z,0.00
2019-03-02T03:00:37.501Z,0.00
2019-03-02T03:01:37.478Z,0.00
2019-03-02T03:02:37.421Z,0.00
2019-03-02T03:03:37.361Z,0.00
2019-03-02T03:04:38.183Z,0.00
2019-03-02T03:05:37.268Z,0.00
2019-03-02T03:06:37.246Z,0.00
2019-03-02T03:07:37.199Z,0.00
2019-03-02T03:08:37.130Z,0.00
2019-03-02T03:09:37.091Z,0.00
2019-03-02T03:10:37.036Z,0.00
2019-03-02T03:11:43.727Z,0.00
2019-03-02T03:12:36.960Z,0.00
2019-03-02T03:13:40.713Z,0.00
2019-03-02T03:14:36.865Z,0.00
2019-03-02T03:15:38.730Z,0.00
2019-03-02T03:16:36.763Z,0.00
2019-03-02T03:17:36.734Z,0.00
2019-03-02T03:18:36.676Z,0.00
2019-03-02T03:19:36.642Z,0.00
2019-03-02T03:20:36.586Z,0.00
2019-03-02T03:21:36.556Z,0.00
2019-03-02T03:22:40.876Z,0.00
2019-03-02T03:23:36.449Z,0.00
2019-03-02T03:24:40.385Z,0.00
2019-03-02T03:25:36.373Z,0.00
2019-03-02T03:26:36.572Z,0.00
2019-03-02T03:27:36.261Z,0.00
2019-03-02T03:28:36.216Z,0.00
2019-03-02T03:29:36.158Z,0.00
2019-03-02T03:30:39.420Z,0.00
2019-03-02T03:31:36.074Z,0.00
2019-03-02T03:32:36.035Z,0.00
2019-03-02T03:33:43.276Z,0.00
2019-03-02T03:34:35.940Z,0.00
2019-03-02T03:35:35.943Z,0.00
2019-03-02T03:36:35.847Z,0.00
2019-03-02T03:37:35.795Z,0.00
2019-03-02T03:38:35.753Z,0.00
2019-03-02T03:39:35.706Z,0.00
2019-03-02T03:40:35.660Z,0.00
2019-03-02T03:41:42.780Z,0.00
2019-03-02T03:42:35.581Z,0.00
2019-03-02T03:43:41.542Z,0.00
2019-03-02T03:44:35.475Z,0.00
2019-03-02T03:45:42.496Z,0.00
2019-03-02T03:46:35.386Z,0.00
2019-03-02T03:47:38.752Z,0.00
2019-03-02T03:48:35.310Z,0.00
2019-03-02T03:49:35.490Z,0.00
2019-03-02T03:50:35.197Z,0.00
2019-03-02T03:51:35.148Z,0.00
2019-03-02T03:52:35.101Z,0.00
2019-03-02T03:53:35.047Z,0.00
2019-03-02T03:54:35.014Z,0.00
2019-03-02T03:55:34.985Z,0.00
2019-03-02T03:56:37.673Z,0.00
2019-03-02T03:57:34.874Z,0.00
2019-03-02T03:58:39.299Z,0.00
2019-03-02T03:59:34.803Z,0.00
2019-03-02T04:00:38.710Z,0.00
2019-03-02T04:01:34.690Z,0.00
2019-03-02T04:02:35.355Z,0.00
2019-03-02T04:03:34.600Z,0.00
2019-03-02T04:04:34.549Z,0.00
2019-03-02T04:05:34.504Z,0.00
2019-03-02T04:06:34.457Z,0.00
2019-03-02T04:07:34.407Z,0.00
2019-03-02T04:08:34.377Z,0.00
2019-03-02T04:09:34.330Z,0.00
2019-03-02T04:10:34.269Z,0.00
2019-03-02T04:11:37.825Z,0.00
2019-03-02T04:12:34.213Z,0.00
2019-03-02T04:13:34.134Z,0.00
2019-03-02T04:14:34.088Z,0.00
2019-03-02T04:15:40.702Z,0.00
2019-03-02T04:16:34.004Z,0.00
2019-03-02T04:17:38.685Z,0.00
2019-03-02T04:18:33.903Z,0.00
2019-03-02T04:19:35.617Z,0.00
2019-03-02T04:20:33.803Z,0.00
2019-03-02T04:21:33.772Z,0.00
2019-03-02T04:22:33.718Z,0.00
2019-03-02T04:23:33.658Z,0.00
2019-03-02T04:24:35.134Z,0.00
2019-03-02T04:25:33.579Z,0.00
2019-03-02T04:26:36.525Z,0.00
2019-03-02T04:27:33.486Z,0.00
2019-03-02T04:28:33.440Z,0.00
2019-03-02T04:29:33.390Z,0.00
2019-03-02T04:30:33.337Z,0.00
2019-03-02T04:31:33.301Z,0.00
2019-03-02T04:32:33.268Z,0.00
2019-03-02T04:33:33.197Z,0.00
2019-03-02T04:34:33.161Z,0.00
2019-03-02T04:35:33.679Z,0.00
2019-03-02T04:36:36.883Z,0.00
2019-03-02T04:37:33.010Z,0.00
2019-03-02T04:38:33.629Z,0.00
2019-03-02T04:39:32.928Z,0.00
2019-03-02T04:40:32.883Z,0.00
2019-03-02T04:41:35.688Z,0.00
2019-03-02T04:42:33.001Z,0.00
2019-03-02T04:43:32.743Z,0.00
2019-03-02T04:44:32.685Z,0.00
2019-03-02T04:45:32.639Z,0.00
2019-03-02T04:46:32.605Z,0.00
2019-03-02T04:47:32.560Z,0.00
2019-03-02T04:48:35.725Z,0.00
2019-03-02T04:49:32.465Z,0.00
2019-03-02T04:50:32.429Z,0.00
2019-03-02T04:51:35.133Z,0.00
2019-03-02T04:52:32.326Z,0.00
2019-03-02T04:53:32.286Z,0.00
2019-03-02T04:54:37.196Z,0.00
2019-03-02T04:55:32.188Z,0.00
2019-03-02T04:56:32.139Z,0.00
2019-03-02T04:57:33.060Z,0.00
2019-03-02T04:58:32.046Z,0.00
2019-03-02T04:59:31.992Z,0.00
2019-03-02T05:00:33.054Z,0.00
2019-03-02T05:01:31.899Z,0.00
2019-03-02T05:02:31.877Z,0.00
2019-03-02T05:03:31.819Z,0.00
2019-03-02T05:04:32.255Z,0.00
2019-03-02T05:05:31.738Z,0.00
2019-03-02T05:06:31.690Z,0.00
2019-03-02T05:07:31.634Z,0.00
2019-03-02T05:08:31.576Z,0.00
2019-03-02T05:09:31.530Z,0.00
2019-03-02T05:10:31.504Z,0.00
2019-03-02T05:11:31.448Z,0.00
2019-03-02T05:12:31.390Z,0.00
2019-03-02T05:13:31.348Z,0.00
2019-03-02T05:14:31.299Z,0.00
2019-03-02T05:15:31.276Z,0.00
2019-03-02T05:16:31.206Z,0.00
2019-03-02T05:17:31.174Z,0.00
2019-03-02T05:18:31.138Z,0.00
2019-03-02T05:19:31.075Z,0.00
2019-03-02T05:20:32.547Z,0.00
2019-03-02T05:21:30.996Z,0.00
2019-03-02T05:22:30.937Z,0.00
2019-03-02T05:23:31.525Z,0.00
2019-03-02T05:24:30.851Z,0.00
2019-03-02T05:25:30.790Z,0.00
2019-03-02T05:26:30.744Z,0.00
2019-03-02T05:27:32.013Z,0.00
2019-03-02T05:28:30.663Z,0.00
2019-03-02T05:29:30.626Z,0.00
2019-03-02T05:30:31.608Z,0.00
2019-03-02T05:31:30.525Z,0.00
2019-03-02T05:32:30.467Z,0.00
2019-03-02T05:33:30.442Z,0.00
2019-03-02T05:34:30.396Z,0.00
2019-03-02T05:35:30.530Z,0.00
2019-03-02T05:36:30.294Z,0.00
2019-03-02T05:37:30.247Z,0.00
2019-03-02T05:38:30.203Z,0.00
2019-03-02T05:39:30.166Z,0.00
2019-03-02T05:40:31.538Z,0.00
2019-03-02T05:41:30.073Z,0.00
2019-03-02T05:42:30.029Z,0.00
2019-03-02T05:43:29.983Z,0.00
2019-03-02T05:44:29.913Z,0.00
2019-03-02T05:45:29.879Z,0.00
2019-03-02T05:46:29.829Z,0.00
2019-03-02T05:47:29.786Z,0.00
2019-03-02T05:48:29.728Z,0.00
2019-03-02T05:49:29.695Z,0.00
2019-03-02T05:50:30.297Z,0.00
2019-03-02T05:51:29.601Z,0.00
2019-03-02T05:52:29.565Z,0.00
2019-03-02T05:53:30.240Z,0.00
2019-03-02T05:54:29.450Z,0.00
2019-03-02T05:55:29.429Z,0.00
2019-03-02T05:56:29.988Z,0.00
2019-03-02T05:57:29.336Z,0.00
2019-03-02T05:58:29.278Z,0.00
2019-03-02T05:59:29.240Z,0.00
2019-03-02T06:00:29.187Z,0.00
2019-03-02T06:01:29.139Z,0.00
2019-03-02T06:02:29.081Z,0.00
2019-03-02T06:03:29.048Z,0.00
2019-03-02T06:04:28.988Z,0.00
2019-03-02T06:05:28.955Z,0.00
2019-03-02T06:06:28.904Z,0.00
2019-03-02T06:07:28.862Z,0.00
2019-03-02T06:08:32.197Z,0.00
2019-03-02T06:09:28.765Z,0.00
2019-03-02T06:10:28.722Z,0.00
2019-03-02T06:11:28.673Z,0.00
2019-03-02T06:12:28.634Z,0.00
2019-03-02T06:13:29.679Z,0.00
2019-03-02T06:14:30.542Z,0.00
2019-03-02T06:15:28.928Z,0.00
2019-03-02T06:16:28.458Z,0.00
2019-03-02T06:17:29.815Z,0.00
2019-03-02T06:18:28.340Z,0.00
2019-03-02T06:19:28.309Z,0.00
2019-03-02T06:20:28.259Z,0.00
2019-03-02T06:21:28.223Z,0.00
2019-03-02T06:22:28.155Z,0.00
2019-03-02T06:23:30.030Z,0.00
2019-03-02T06:24:28.074Z,0.00
2019-03-02T06:25:28.033Z,0.00
2019-03-02T06:26:27.996Z,0.00
2019-03-02T06:27:27.934Z,0.00
2019-03-02T06:28:27.890Z,0.00
2019-03-02T06:29:29.452Z,0.00
2019-03-02T06:30:27.809Z,0.00
2019-03-02T06:31:27.750Z,0.00
2019-03-02T06:32:30.266Z,0.00
2019-03-02T06:33:27.670Z,0.00
2019-03-02T06:34:27.600Z,0.00
2019-03-02T06:35:29.050Z,0.00
2019-03-02T06:36:27.528Z,0.00
2019-03-02T06:37:27.485Z,0.00
2019-03-02T06:38:28.912Z,0.00
2019-03-02T06:39:27.383Z,0.00
2019-03-02T06:40:27.335Z,0.00
2019-03-02T06:41:29.849Z,0.00
2019-03-02T06:42:27.242Z,0.00
2019-03-02T06:43:27.191Z,0.00
2019-03-02T06:44:27.149Z,0.00
2019-03-02T06:45:27.105Z,0.00
2019-03-02T06:46:27.057Z,0.00
2019-03-02T06:47:30.025Z,0.00
2019-03-02T06:48:26.973Z,0.00
2019-03-02T06:49:26.927Z,0.00
2019-03-02T06:50:26.873Z,0.00
2019-03-02T06:51:26.815Z,0.00
2019-03-02T06:52:26.767Z,0.00
2019-03-02T06:53:26.742Z,0.00
2019-03-02T06:54:26.687Z,0.00
2019-03-02T06:55:26.641Z,0.00
2019-03-02T06:56:26.582Z,0.00
2019-03-02T06:57:26.547Z,0.00
2019-03-02T06:58:29.252Z,0.00
2019-03-02T06:59:26.443Z,0.00
2019-03-02T07:00:26.396Z,0.00
2019-03-02T07:01:26.363Z,0.00
2019-03-02T07:02:26.317Z,0.00
2019-03-02T07:03:26.279Z,0.00
2019-03-02T07:04:26.228Z,0.00
2019-03-02T07:05:26.187Z,0.00
2019-03-02T07:06:26.132Z,0.00
2019-03-02T07:07:26.087Z,0.00
2019-03-02T07:08:26.041Z,0.00
2019-03-02T07:09:26.001Z,0.00
2019-03-02T07:10:25.946Z,0.00
2019-03-02T07:11:25.888Z,0.00
2019-03-02T07:12:25.862Z,0.00
2019-03-02T07:13:25.812Z,0.00
2019-03-02T07:14:28.881Z,0.00
2019-03-02T07:15:25.727Z,0.00
2019-03-02T07:16:25.681Z,0.00
2019-03-02T07:17:27.620Z,0.00
2019-03-02T07:18:25.564Z,0.00
2019-03-02T07:19:25.523Z,0.00
2019-03-02T07:20:27.423Z,0.00
2019-03-02T07:21:25.434Z,0.00
2019-03-02T07:22:25.388Z,0.00
2019-03-02T07:23:27.653Z,0.00
2019-03-02T07:24:25.903Z,0.00
2019-03-02T07:25:25.240Z,0.00
2019-03-02T07:26:25.194Z,0.00
2019-03-02T07:27:26.384Z,0.00
2019-03-02T07:28:25.110Z,0.00
2019-03-02T07:29:25.068Z,0.00
2019-03-02T07:30:25.033Z,0.00
2019-03-02T07:31:24.976Z,0.00
2019-03-02T07:32:24.916Z,0.00
2019-03-02T07:33:24.874Z,0.00
2019-03-02T07:34:24.824Z,0.00
2019-03-02T07:35:24.799Z,0.00
2019-03-02T07:36:28.078Z,0.00
2019-03-02T07:37:24.698Z,0.00
2019-03-02T07:38:24.651Z,0.00
2019-03-02T07:39:24.607Z,0.00
2019-03-02T07:40:24.560Z,0.00
2019-03-02T07:41:24.500Z,0.00
2019-03-02T07:42:24.454Z,0.00
2019-03-02T07:43:24.408Z,0.00
2019-03-02T07:44:24.374Z,0.00
2019-03-02T07:45:24.316Z,0.00
2019-03-02T07:46:24.269Z,0.00
2019-03-02T07:47:25.070Z,0.00
2019-03-02T07:48:24.181Z,0.00
2019-03-02T07:49:24.142Z,0.00
2019-03-02T07:50:25.961Z,0.00
2019-03-02T07:51:24.054Z,0.00
2019-03-02T07:52:24.000Z,0.00
2019-03-02T07:53:24.937Z,0.00
2019-03-02T07:54:23.924Z,0.00
2019-03-02T07:55:23.866Z,0.00
2019-03-02T07:56:23.831Z,0.00
2019-03-02T07:57:23.772Z,0.00
2019-03-02T07:58:23.727Z,0.00
2019-03-02T07:59:26.573Z,0.00
2019-03-02T08:00:23.633Z,0.00
2019-03-02T08:01:23.589Z,0.00
2019-03-02T08:02:25.836Z,0.00
2019-03-02T08:03:23.504Z,0.00
2019-03-02T08:04:23.450Z,0.00
2019-03-02T08:05:23.404Z,0.00
2019-03-02T08:06:25.659Z,0.00
2019-03-02T08:07:23.337Z,0.00
2019-03-02T08:08:23.273Z,0.00
2019-03-02T08:09:25.839Z,0.00
2019-03-02T08:10:23.172Z,0.00
2019-03-02T08:11:23.137Z,0.00
2019-03-02T08:12:24.820Z,0.00
2019-03-02T08:13:23.033Z,0.00
2019-03-02T08:14:22.983Z,0.00
2019-03-02T08:15:24.255Z,0.00
2019-03-02T08:16:22.908Z,0.00
2019-03-02T08:17:22.848Z,0.00
2019-03-02T08:18:25.926Z,0.00
2019-03-02T08:19:22.755Z,0.00
2019-03-02T08:20:24.775Z,0.00
2019-03-02T08:21:22.672Z,0.00
2019-03-02T08:22:22.617Z,0.00
2019-03-02T08:23:22.571Z,0.00
2019-03-02T08:24:22.526Z,0.00
2019-03-02T08:25:22.466Z,0.00
2019-03-02T08:26:22.603Z,0.00
2019-03-02T08:27:22.386Z,0.00
2019-03-02T08:28:22.336Z,0.00
2019-03-02T08:29:22.289Z,0.00
2019-03-02T08:30:22.251Z,0.00
2019-03-02T08:31:22.201Z,0.00
2019-03-02T08:32:22.142Z,0.00
2019-03-02T08:33:22.121Z,0.00
2019-03-02T08:34:22.064Z,0.00
2019-03-02T08:35:22.033Z,0.00
2019-03-02T08:36:21.970Z,0.00
2019-03-02T08:37:21.922Z,0.00
2019-03-02T08:38:21.873Z,0.00
2019-03-02T08:39:21.819Z,0.00
2019-03-02T08:40:23.328Z,0.00
2019-03-02T08:41:21.740Z,0.00
2019-03-02T08:42:21.704Z,0.00
2019-03-02T08:43:21.646Z,0.00
2019-03-02T08:44:21.597Z,0.00
2019-03-02T08:45:21.562Z,0.00
2019-03-02T08:46:21.506Z,0.00
2019-03-02T08:47:21.448Z,0.00
2019-03-02T08:48:21.406Z,0.00
2019-03-02T08:49:21.368Z,0.00
2019-03-02T08:50:21.321Z,0.00
2019-03-02T08:51:21.675Z,0.00
2019-03-02T08:52:21.233Z,0.00
2019-03-02T08:53:21.733Z,0.00
2019-03-02T08:54:21.551Z,0.00
2019-03-02T08:55:21.091Z,0.00
2019-03-02T08:56:21.040Z,0.00
2019-03-02T08:57:23.129Z,0.00
2019-03-02T08:58:22.561Z,0.00
2019-03-02T08:59:20.915Z,0.00
2019-03-02T09:00:20.847Z,0.00
2019-03-02T09:01:20.826Z,0.00
2019-03-02T09:02:20.779Z,0.00
2019-03-02T09:03:20.720Z,0.00
2019-03-02T09:04:20.676Z,0.00
2019-03-02T09:05:26.057Z,0.00
2019-03-02T09:06:20.574Z,0.00
2019-03-02T09:07:20.537Z,0.00
2019-03-02T09:08:20.485Z,0.00
2019-03-02T09:09:20.440Z,0.00
2019-03-02T09:10:21.722Z,0.00
2019-03-02T09:11:20.347Z,0.00
2019-03-02T09:12:21.891Z,0.00
2019-03-02T09:13:20.259Z,0.00
2019-03-02T09:14:20.209Z,0.00
2019-03-02T09:15:22.235Z,0.00
2019-03-02T09:16:20.132Z,0.00
2019-03-02T09:17:20.073Z,0.00
2019-03-02T09:18:20.015Z,0.00
2019-03-02T09:19:20.861Z,0.00
2019-03-02T09:20:19.934Z,0.00
2019-03-02T09:21:19.877Z,0.00
2019-03-02T09:22:20.881Z,0.00
2019-03-02T09:23:19.784Z,5.63
2019-03-02T09:24:19.823Z,5.63
2019-03-02T09:25:20.217Z,5.63
2019-03-02T09:26:19.669Z,5.63
2019-03-02T09:27:19.611Z,5.63
2019-03-02T09:28:19.566Z,5.63
2019-03-02T09:29:19.530Z,5.63
2019-03-02T09:30:19.469Z,11.25
2019-03-02T09:31:26.073Z,11.25
2019-03-02T09:32:19.370Z,11.25
2019-03-02T09:33:19.344Z,11.25
2019-03-02T09:34:19.289Z,11.25
2019-03-02T09:35:19.240Z,16.88
2019-03-02T09:36:19.197Z,16.88
2019-03-02T09:37:19.151Z,22.50
2019-03-02T09:38:20.909Z,22.50
2019-03-02T09:39:19.045Z,22.50
2019-03-02T09:40:19.012Z,22.50
2019-03-02T09:41:21.939Z,22.50
2019-03-02T09:42:18.932Z,22.50
2019-03-02T09:43:18.872Z,22.50
2019-03-02T09:44:18.836Z,22.50
2019-03-02T09:45:18.782Z,28.13
2019-03-02T09:46:21.170Z,28.13
2019-03-02T09:47:18.690Z,39.38
2019-03-02T09:48:20.953Z,50.63
2019-03-02T09:49:18.600Z,61.88
2019-03-02T09:50:18.554Z,73.13
2019-03-02T09:51:18.501Z,84.38
2019-03-02T09:52:18.665Z,106.88
2019-03-02T09:53:18.400Z,140.63
2019-03-02T09:54:18.354Z,174.38
2019-03-02T09:55:19.967Z,376.88
2019-03-02T09:56:18.287Z,315.00
2019-03-02T09:57:18.228Z,444.38
2019-03-02T09:58:20.266Z,753.75
2019-03-02T09:59:18.150Z,748.13
2019-03-02T10:00:19.361Z,613.13
2019-03-02T10:01:18.104Z,888.75
2019-03-02T10:02:18.014Z,708.75
2019-03-02T10:03:17.957Z,461.25
2019-03-02T10:04:17.920Z,303.75
2019-03-02T10:05:17.881Z,208.13
2019-03-02T10:06:17.824Z,140.63
2019-03-02T10:07:17.774Z,135.00
2019-03-02T10:08:17.747Z,123.75
2019-03-02T10:09:17.699Z,208.13
2019-03-02T10:10:17.634Z,163.13
2019-03-02T10:11:17.588Z,90.00
2019-03-02T10:12:17.553Z,78.75
2019-03-02T10:13:17.500Z,78.75
2019-03-02T10:14:20.715Z,67.50
2019-03-02T10:15:19.363Z,67.50
2019-03-02T10:16:17.391Z,67.50
2019-03-02T10:17:17.343Z,56.25
2019-03-02T10:18:17.277Z,50.63
2019-03-02T10:19:17.232Z,39.38
2019-03-02T10:20:17.201Z,28.13
2019-03-02T10:21:17.158Z,22.50
2019-03-02T10:22:19.779Z,22.50
2019-03-02T10:23:17.067Z,16.88
2019-03-02T10:24:17.939Z,16.88
2019-03-02T10:25:16.974Z,16.88
2019-03-02T10:26:16.919Z,22.50
2019-03-02T10:27:17.318Z,28.13
2019-03-02T10:28:16.842Z,28.13
2019-03-02T10:29:16.797Z,28.13
2019-03-02T10:30:16.760Z,28.13
2019-03-02T10:31:16.703Z,28.13
2019-03-02T10:32:16.661Z,39.38
2019-03-02T10:33:16.603Z,45.00
2019-03-02T10:34:17.297Z,50.63
2019-03-02T10:35:17.133Z,61.88
2019-03-02T10:36:16.481Z,73.13
2019-03-02T10:37:16.444Z,78.75
2019-03-02T10:38:18.977Z,73.13
2019-03-02T10:39:16.341Z,73.13
2019-03-02T10:40:16.512Z,73.13
2019-03-02T10:41:16.716Z,73.13
2019-03-02T10:42:16.197Z,67.50
2019-03-02T10:43:16.153Z,61.88
2019-03-02T10:44:17.754Z,56.25
2019-03-02T10:45:16.074Z,56.25
2019-03-02T10:46:16.023Z,50.63
2019-03-02T10:47:16.657Z,50.63
2019-03-02T10:48:15.925Z,45.00
2019-03-02T10:49:15.892Z,45.00
2019-03-02T10:50:15.859Z,45.00
2019-03-02T10:51:15.810Z,45.00
2019-03-02T10:52:15.751Z,45.00
2019-03-02T10:53:15.769Z,39.38
2019-03-02T10:54:15.666Z,39.38
2019-03-02T10:55:15.620Z,33.75
2019-03-02T10:56:15.583Z,33.75
2019-03-02T10:57:15.516Z,33.75
2019-03-02T10:58:15.474Z,33.75
2019-03-02T10:59:16.400Z,33.75
2019-03-02T11:00:15.391Z,33.75
2019-03-02T11:01:15.343Z,33.75
2019-03-02T11:02:16.926Z,39.38
2019-03-02T11:03:15.265Z,39.38
2019-03-02T11:04:15.206Z,45.00
2019-03-02T11:05:16.766Z,45.00
2019-03-02T11:06:15.121Z,50.63
2019-03-02T11:07:15.082Z,56.25
2019-03-02T11:08:15.024Z,61.88
2019-03-02T11:09:22.161Z,67.50
2019-03-02T11:10:16.642Z,61.88
2019-03-02T11:11:14.894Z,61.88
2019-03-02T11:12:14.858Z,61.88
2019-03-02T11:13:16.016Z,56.25
2019-03-02T11:14:14.743Z,50.63
2019-03-02T11:15:14.709Z,45.00
2019-03-02T11:16:14.660Z,45.00
2019-03-02T11:17:14.605Z,45.00
2019-03-02T11:18:14.568Z,50.63
2019-03-02T11:19:14.541Z,50.63
2019-03-02T11:20:14.481Z,56.25
2019-03-02T11:21:14.431Z,67.50
2019-03-02T11:22:15.072Z,78.75
2019-03-02T11:23:15.790Z,101.25
2019-03-02T11:24:14.286Z,118.13
2019-03-02T11:25:14.241Z,140.63
2019-03-02T11:26:14.209Z,151.88
2019-03-02T11:27:14.148Z,129.38
2019-03-02T11:28:14.118Z,101.25
2019-03-02T11:29:14.082Z,95.63
2019-03-02T11:30:14.012Z,84.38
2019-03-02T11:31:13.966Z,73.13
2019-03-02T11:32:16.811Z,56.25
2019-03-02T11:33:13.889Z,50.63
2019-03-02T11:34:13.843Z,45.00
2019-03-02T11:35:13.787Z,50.63
2019-03-02T11:36:13.974Z,56.25
2019-03-02T11:37:13.695Z,67.50
2019-03-02T11:38:13.672Z,67.50
2019-03-02T11:39:13.890Z,67.50
2019-03-02T11:40:13.570Z,78.75
2019-03-02T11:41:13.533Z,84.38
2019-03-02T11:42:14.052Z,95.63
2019-03-02T11:43:16.247Z,106.88
2019-03-02T11:44:13.384Z,106.88
2019-03-02T11:45:13.338Z,101.25
2019-03-02T11:46:13.297Z,95.63
2019-03-02T11:47:13.243Z,95.63
2019-03-02T11:48:14.466Z,95.63
2019-03-02T11:49:13.161Z,101.25
2019-03-02T11:50:14.277Z,112.50
2019-03-02T11:51:13.068Z,112.50
2019-03-02T11:52:13.013Z,118.13
2019-03-02T11:53:15.941Z,118.13
2019-03-02T11:54:12.946Z,123.75
2019-03-02T11:55:12.896Z,118.13
2019-03-02T11:56:12.830Z,112.50
2019-03-02T11:57:12.796Z,112.50
2019-03-02T11:58:12.760Z,118.13
2019-03-02T11:59:12.720Z,140.63
2019-03-02T12:00:12.662Z,185.63
2019-03-02T12:01:12.612Z,219.38
2019-03-02T12:02:15.686Z,241.88
2019-03-02T12:03:12.526Z,241.88
2019-03-02T12:04:15.245Z,230.63
2019-03-02T12:05:12.444Z,241.88
2019-03-02T12:06:12.402Z,253.13
2019-03-02T12:07:12.345Z,270.00
2019-03-02T12:08:12.299Z,298.13
2019-03-02T12:09:12.255Z,348.75
2019-03-02T12:10:12.209Z,365.63
2019-03-02T12:11:12.152Z,286.88
2019-03-02T12:12:12.108Z,270.00
2019-03-02T12:13:12.076Z,315.00
2019-03-02T12:14:12.021Z,298.13
2019-03-02T12:15:11.998Z,320.63
2019-03-02T12:16:11.937Z,326.25
2019-03-02T12:17:11.883Z,292.50
2019-03-02T12:18:12.772Z,286.88
2019-03-02T12:19:11.797Z,225.00
2019-03-02T12:20:11.894Z,191.25
2019-03-02T12:21:11.729Z,202.50
2019-03-02T12:22:11.685Z,230.63
2019-03-02T12:23:11.629Z,258.75
2019-03-02T12:24:15.037Z,236.25
2019-03-02T12:25:11.551Z,185.63
2019-03-02T12:26:11.994Z,151.88
2019-03-02T12:27:11.450Z,123.75
2019-03-02T12:28:11.406Z,123.75
2019-03-02T12:29:13.398Z,135.00
2019-03-02T12:30:11.306Z,123.75
2019-03-02T12:31:11.260Z,135.00
2019-03-02T12:32:11.238Z,163.13
2019-03-02T12:33:11.184Z,129.38
2019-03-02T12:34:11.141Z,118.13
2019-03-02T12:35:11.095Z,112.50
2019-03-02T12:36:12.608Z,118.13
2019-03-02T12:37:11.008Z,135.00
2019-03-02T12:38:12.924Z,151.88
2019-03-02T12:39:10.905Z,123.75
2019-03-02T12:40:10.886Z,106.88
2019-03-02T12:41:12.118Z,90.00
2019-03-02T12:42:10.773Z,84.38
2019-03-02T12:43:10.739Z,84.38
2019-03-02T12:44:10.688Z,90.00
2019-03-02T12:45:10.650Z,95.63
2019-03-02T12:46:13.026Z,90.00
2019-03-02T12:47:10.574Z,78.75
2019-03-02T12:48:10.517Z,67.50
2019-03-02T12:49:10.913Z,56.25
2019-03-02T12:50:10.423Z,50.63
2019-03-02T12:51:10.391Z,50.63
2019-03-02T12:52:12.251Z,50.63
2019-03-02T12:53:10.281Z,50.63
2019-03-02T12:54:10.247Z,56.25
2019-03-02T12:55:10.203Z,56.25
2019-03-02T12:56:10.146Z,50.63
2019-03-02T12:57:10.104Z,50.63
2019-03-02T12:58:10.070Z,50.63
2019-03-02T12:59:10.011Z,56.25
2019-03-02T13:00:09.979Z,56.25
2019-03-02T13:01:09.934Z,61.88
2019-03-02T13:02:13.659Z,73.13
2019-03-02T13:03:10.002Z,84.38
2019-03-02T13:04:10.527Z,101.25
2019-03-02T13:05:09.741Z,118.13
2019-03-02T13:06:09.720Z,123.75
2019-03-02T13:07:10.339Z,140.63
2019-03-02T13:08:14.871Z,157.50